Weather observations for the past three days for
Effingham, Effingham County Memorial Airport
Imperial (Metric)
Date Time (cdt) Wind (mph) Vis. (mi.) Weather Sky Cond. Temperature (ºF) Relative Humidity Wind Chill (°F) Heat Index (°F) Pressure Precipitation (in)
Air Dwpt 6 hour altimeter (in) sea level (mb) 1 hr 3 hr 6 hr
Max. Min.
05 18:55 N 3 10.00 Fair CLR 87.3 75.7 99 77.2 69% 98 29.91 0.0 0.32
05 18:35 Calm 10.00 Fair CLR 89.6 73.9 60% 99 29.91 0.0
05 18:15 Calm 10.00 Fair CLR 90 74.5 60% 100 29.9 0.0
05 17:55 N 3 10.00 Fair CLR 91.2 73.9 57% 101 29.9 0.0
05 17:35 Calm 10.00 Fair CLR 91.9 71.8 52% 99 29.89 0.0
05 17:15 Calm 10.00 Fair CLR 92.5 71.4 50% 100 29.89 0.0
05 16:55 Calm 10.00 Fair CLR 93.7 72.1 50% 102 29.89 0.0
05 16:35 Calm 10.00 Fair CLR 94.1 70.2 46% 101 29.89 0.0
05 16:15 Calm 10.00 Fair CLR 92.3 72.7 53% 101 29.9 0.0
05 15:55 Calm 10.00 Fair CLR 90.3 72.5 56% 98 29.91 0.0 0.32
05 15:35 Calm 10.00 Fair CLR 89.1 72.5 58% 97 29.91 0.0
05 15:15 E 5 10.00 Fair CLR 85.5 72.7 66% 92 29.92 0.0
05 14:55 E 7 10.00 Fair CLR 80.2 70.9 73% 84 29.93 0.0 0.21
05 12:55 W 6 10.00 Fair CLR 97.3 68.5 97.3 73.6 39% 103 29.94 0.0
05 12:35 W 6 10.00 Fair CLR 96.3 68.4 40% 102 29.95 0.0
05 12:15 W 3 10.00 Fair CLR 95.9 67.6 40% 101 29.95 0.0
05 11:55 W 6 10.00 Fair CLR 95.9 68.5 41% 101 29.96 0.0
05 11:35 W 5 10.00 Fair CLR 95.5 68.9 42% 101 29.96 0.0
05 11:15 SW 3 10.00 Fair CLR 94.1 69.1 44% 100 29.96 0.0
05 10:55 W 3 10.00 Fair CLR 93.9 69.4 45% 100 29.96 0.0
05 10:35 W 6 10.00 Fair CLR 93.4 69.1 45% 99 29.96 0.0
05 10:15 W 6 10.00 Fair CLR 92.5 69.6 47% 98 29.97 0.0
05 09:55 W 3 10.00 Fair CLR 90.7 70.3 51% 97 29.97 0.0
05 09:35 Calm 10.00 Fair CLR 89.4 71.1 55% 96 29.96 0.0
05 09:15 SW 3 10.00 Fair CLR 86.5 72.1 62% 93 29.96 0.0
05 08:55 Calm 10.00 Fair CLR 85.1 71.4 64% 91 29.97 0.0
05 08:35 Calm 10.00 Fair CLR 82.6 72.3 71% 88 29.97 0.0
05 08:15 Calm 10.00 Fair CLR 80.4 72.1 76% 85 29.98 0.0
05 07:55 Calm 10.00 Fair CLR 77.4 73.2 87% 79 29.98 0.0
05 07:35 Calm 10.00 Fair CLR 75 72.5 92% 74 29.97 0.0
05 07:15 Calm 10.00 Partly Cloudy SCT080 74.3 72 92% 29.97 0.0
05 06:55 Calm 10.00 Partly Cloudy SCT080 73.4 71.6 76.8 72.7 94% 29.96 0.0
05 06:35 Calm 10.00 Fair CLR 73 71.2 94% 29.96 0.0
05 06:15 Calm 10.00 Fair CLR 73 71.1 94% 29.96 0.0
05 05:55 Calm 10.00 Fair CLR 73.2 71.4 94% 29.96 0.0
05 05:35 Calm 10.00 Fair CLR 73.4 71.6 94% 29.96 0.0
05 05:15 Calm 10.00 Partly Cloudy SCT070 74.3 71.8 92% 29.96 0.0
05 04:55 Calm 10.00 Mostly Cloudy BKN070 73.6 71.6 94% 29.95 0.0
05 04:35 Calm 10.00 Fair CLR 73.9 71.6 92% 29.95 0.0
05 04:15 Calm 10.00 Fair CLR 73.9 71.6 92% 29.94 0.0
05 03:55 Calm 10.00 Fair CLR 74.3 71.6 91% 29.94 0.0
05 03:35 Calm 10.00 Fair CLR 74.5 71.6 91% 29.95 0.0
05 03:15 Calm 10.00 Fair CLR 74.5 71.8 91% 29.95 0.0
05 02:55 Calm 10.00 Fair CLR 74.7 71.6 90% 29.96 0.0
05 02:35 Calm 10.00 Fair CLR 76.6 70.7 82% 78 29.95 0.0
05 02:15 Calm 10.00 Fair CLR 75.4 72 89% 75 29.95 0.0
05 01:55 Calm 10.00 Fair CLR 75.2 72.5 91% 74 29.95 0.0
05 01:35 Calm 10.00 Fair CLR 75.4 72.5 91% 75 29.95 0.0
05 01:15 Calm 10.00 Fair CLR 75.6 72.5 90% 75 29.96 0.0
05 00:55 Calm 10.00 Fair CLR 75.4 72.7 90.3 74.7 91% 75 29.96 0.0
05 00:35 Calm 10.00 Fair CLR 75.2 72.7 92% 74 29.96 0.0
05 00:15 Calm 10.00 Fair CLR 75.9 73.2 91% 76 29.96 0.0
04 23:55 Calm 10.00 Fair CLR 76.1 73.2 91% 76 29.96 0.0
04 23:35 Calm 10.00 Fair CLR 76.5 73.4 90% 77 29.96 0.0
04 23:15 Calm 10.00 Fair CLR 76.5 73.4 90% 77 29.97 0.0
04 22:55 Calm 10.00 Fair CLR 77.2 74.1 90% 79 29.96 0.0
04 22:35 Calm 10.00 Fair CLR 77.4 73.8 89% 79 29.96 0.0
04 22:15 Calm 10.00 Fair CLR 78.3 74.5 88% 81 29.96 0.0
04 21:55 Calm 10.00 Fair CLR 78.6 75.4 90% 82 29.96 0.0
04 21:35 Calm 10.00 Fair CLR 78.4 74.8 89% 82 29.96 0.0
04 21:15 Calm 10.00 Fair CLR 79 74.1 85% 83 29.95 0.0
04 20:55 Calm 10.00 Fair CLR 80.1 74.5 83% 85 29.95 0.0
04 20:35 Calm 10.00 Fair CLR 81 74.5 81% 86 29.95 0.0
04 20:15 Calm 10.00 Fair CLR 81.7 73.4 76% 87 29.94 0.0
04 19:55 Calm 10.00 Fair CLR 82.4 74.3 77% 89 29.94 0.0
04 19:35 Calm 10.00 Fair CLR 83.8 75.2 75% 92 29.94 0.0
04 19:15 Calm 10.00 Fair CLR 86.9 73 63% 94 29.93 0.0
04 18:55 Calm 10.00 Fair CLR 90.9 70.9 98.6 90.9 52% 97 29.93 0.0
04 18:35 Calm 10.00 Fair CLR 93.9 67.1 41% 98 29.93 0.0
04 18:15 SW 3 10.00 Fair CLR 95 66.6 39% 99 29.93 0.0
04 17:55 S 5 10.00 Fair CLR 96.3 64.2 35% 99 29.93 0.0
04 17:35 SW 6 10.00 Fair CLR 96.4 64.2 35% 99 29.93 0.0
04 17:15 S 5 10.00 Fair CLR 97.2 63.3 33% 99 29.93 0.0
04 16:55 S 5 10.00 Fair CLR 97.7 63.9 33% 100 29.94 0.0
04 16:35 SW 6 10.00 Fair CLR 97.9 63.1 32% 100 29.94 0.0
04 16:15 SW 7 10.00 Fair CLR 97.9 62.2 31% 99 29.95 0.0
04 15:55 S 6 10.00 Partly Cloudy SCT070 97.9 61.7 30% 99 29.95 0.0
04 15:35 W 6 10.00 Fair CLR 98.4 61 29% 99 29.96 0.0
04 15:15 S 7 10.00 Partly Cloudy SCT070 98.1 61.9 30% 99 29.97 0.0
04 14:55 S 6 10.00 Partly Cloudy SCT070 98.6 63 31% 100 29.98 0.0
04 14:35 S 5 10.00 Partly Cloudy SCT070 97.2 61.9 31% 98 29.99 0.0
04 14:15 W 6 10.00 Partly Cloudy SCT070 98.1 63.5 32% 100 29.99 0.0
04 13:55 Calm 10.00 Fair CLR 97.7 63.1 32% 100 30 0.0
04 13:35 W 6 10.00 Fair CLR 97.5 62.2 31% 99 30.01 0.0
04 13:15 W 8 10.00 Fair CLR 96.8 62.1 32% 98 30.01 0.0
04 12:55 W 8 10.00 Fair CLR 97 62.4 97.2 72 32% 98 30.02 0.0
04 12:35 SW 5 10.00 Fair CLR 95.9 63.1 34% 97 30.02 0.0
04 12:15 SW 9 10.00 Fair CLR 95.9 64.8 36% 98 30.02 0.0
04 11:55 SW 9 G 17 10.00 Fair CLR 95.9 64.9 36% 99 30.03 0.0
04 11:35 SW 12 G 17 10.00 Fair CLR 95 64.4 36% 97 30.03 0.0
04 11:15 SW 12 G 16 10.00 Fair CLR 94.1 65.7 39% 97 30.03 0.0
04 10:55 SW 9 10.00 Fair CLR 93.2 67.3 43% 97 30.03 0.0
04 10:35 SW 8 10.00 Fair CLR 92.5 68.7 46% 97 30.03 0.0
04 10:15 SW 9 10.00 Fair CLR 91.4 70 50% 97 30.03 0.0
04 09:55 SW 6 10.00 Fair CLR 90 70.9 54% 96 30.03 0.0
04 09:35 W 5 10.00 Fair CLR 88.7 71.4 57% 95 30.02 0.0
04 09:15 SW 5 10.00 Fair CLR 86.4 71.4 61% 92 30.02 0.0
04 08:55 SW 5 10.00 Fair CLR 84.6 72.1 66% 90 30.02 0.0
04 08:35 SW 3 10.00 Fair CLR 82.9 72.7 71% 89 30.02 0.0
04 08:15 S 6 10.00 Fair CLR 81.3 72.5 75% 86 30.01 0.0
04 07:55 S 5 10.00 Fair CLR 79 72.9 82% 82 30.01 0.0
04 07:35 S 3 10.00 Fair CLR 76.1 72.5 89% 76 30.01 0.0
04 07:15 Calm 10.00 Fair CLR 73.2 71.4 94% 30.01 0.0
04 06:55 Calm 10.00 Fair CLR 71.8 70 75.2 71.6 94% 30.01 0.0
04 06:35 Calm 10.00 Fair CLR 71.6 69.8 94% 30.01 0.0
04 06:15 Calm 10.00 Fair CLR 71.6 69.8 94% 30 0.0
04 05:55 Calm 10.00 Fair CLR 72 70.2 94% 30 0.0
04 05:35 Calm 10.00 Fair CLR 72.5 70.7 94% 29.99 0.0
04 05:15 Calm 10.00 Fair CLR 72.5 70.7 94% 29.99 0.0
04 04:55 Calm 10.00 Fair CLR 73 71.2 94% 29.99 0.0
04 04:35 Calm 10.00 Fair CLR 73.4 71.4 94% 29.98 0.0
04 03:55 Calm 10.00 Fair CLR 74.5 71.6 91% 29.98 0.0
04 03:35 Calm 10.00 Fair CLR 73.6 71.6 94% 29.98 0.0
04 03:15 Calm 10.00 Fair CLR 73.6 71.8 94% 29.98 0.0
04 02:55 Calm 10.00 Fair CLR 73.8 72 94% 29.98 0.0
04 02:35 Calm 10.00 Fair CLR 73.4 71.6 94% 29.98 0.0
04 02:15 Calm 10.00 Fair CLR 74.1 72.3 94% 29.98 0.0
04 01:55 Calm 10.00 Fair CLR 74.3 72.5 94% 29.98 0.0
04 01:35 Calm 10.00 Fair CLR 75.2 73 93% 74 29.98 0.0
04 01:15 Calm 10.00 Fair CLR 75 73 94% 73 29.99 0.0
04 00:55 E 3 10.00 Fair CLR 75.2 73 89.2 75.2 93% 74 29.99 0.0
04 00:35 Calm 10.00 Fair CLR 76.5 73.4 90% 77 29.99 0.0
04 00:15 Calm 10.00 Fair CLR 77 73.2 88% 78 29.99 0.0
03 23:55 Calm 10.00 Fair CLR 78.6 72.7 82% 82 29.99 0.0
03 23:35 Calm 10.00 Fair CLR 80.6 70.9 72% 84 29.99 0.0
03 23:15 Calm 10.00 Fair CLR 79.3 72.7 80% 83 29.98 0.0
03 22:55 S 3 10.00 Fair CLR 78.3 74.3 88% 81 29.98 0.0
03 22:35 Calm 10.00 Fair CLR 77.4 75.6 94% 79 29.98 0.0
03 22:15 Calm 10.00 Fair CLR 77.9 75.2 91% 80 29.98 0.0
03 21:55 Calm 10.00 Fair CLR 79.2 75.6 89% 83 29.98 0.0
03 21:35 Calm 10.00 Fair CLR 79.2 76.5 91% 84 29.98 0.0
03 21:15 Calm 10.00 Fair CLR 79.3 76.3 90% 84 29.97 0.0
03 20:55 Calm 10.00 Fair CLR 80.6 77 89% 87 29.97 0.0
03 20:35 Calm 10.00 Fair CLR 81.5 77.4 87% 89 29.97 0.0
03 20:15 Calm 10.00 Fair CLR 81.5 77.5 88% 89 29.96 0.0
03 19:55 Calm 10.00 Fair CLR 83.1 76.5 80% 92 29.96 0.0
03 19:35 Calm 10.00 Fair CLR 84.4 76.3 77% 94 29.95 0.0
03 19:15 Calm 10.00 Fair CLR 85.6 76.8 75% 96 29.95 0.0
03 18:55 Calm 10.00 Fair CLR 89.8 73.6 97.9 89.8 59% 99 29.95 0.0
03 18:35 Calm 10.00 Fair CLR 92.5 69.4 47% 98 29.94 0.0
03 18:15 Calm 10.00 Fair CLR 94.3 67.6 42% 99 29.94 0.0
03 17:55 SW 3 10.00 Fair CLR 95 66 39% 98 29.95 0.0
03 17:35 S 5 10.00 Fair CLR 95.9 65.1 36% 99 29.95 0.0
03 17:15 SW 7 10.00 Fair CLR 96.3 64.6 35% 99 29.95 0.0
03 16:55 SW 7 10.00 Fair CLR 96.6 65.3 36% 100 29.95 0.0
03 16:35 S 7 10.00 Fair CLR 97.2 63.5 33% 99 29.95 0.0
03 16:15 S 7 10.00 Fair CLR 97 64.4 34% 99 29.96 0.0
03 15:50 SW 6 10.00 Fair CLR 97.5 64 33% 100 29.96 0.0
03 15:35 S 7 10.00 Fair CLR 97.7 64.8 34% 101 29.96 0.0
03 15:15 SW 5 10.00 Partly Cloudy SCT070 SCT080 97.2 63.9 33% 99 29.97 0.0
03 14:55 W 5 10.00 Partly Cloudy SCT070 SCT090 95.9 64.8 36% 98 29.98 0.0
03 14:35 SW 6 10.00 Partly Cloudy SCT100 97.3 64 33% 100 29.98 0.0
03 14:15 SW 8 10.00 Fair CLR 97.2 64.8 35% 100 29.99 0.0
03 13:55 SW 9 10.00 Fair CLR 97 65.7 36% 100 30 0.0
03 13:35 W 9 10.00 Partly Cloudy SCT060 96.6 66.2 37% 100 30 0.0
03 13:15 S 7 10.00 Fair CLR 96.4 65.8 37% 100 30 0.0
03 12:55 S 9 10.00 Fair CLR 95.5 66 95.9 73.6 38% 99 30.01 0.0
03 12:35 SW 9 10.00 Fair CLR 95.4 66.7 39% 99 30.01 0.0
03 12:15 W 13 10.00 Fair CLR 95 66.6 39% 99 30.02 0.0
03 11:55 SW 9 10.00 Fair CLR 94.3 66.9 41% 98 30.02 0.0
03 11:35 SW 10 10.00 Fair CLR 94.1 67.5 42% 98 30.03 0.0
03 11:20 SW 12 G 16 10.00 Fair CLR 93.4 68.5 44% 98 30.03 0.0
03 10:35 SW 7 10.00 Fair CLR 91.4 70.5 51% 98 30.03 0.0
03 10:15 SW 8 10.00 Partly Cloudy SCT110 90.1 71.2 54% 97 30.03 0.0
03 09:55 S 8 10.00 Fair CLR 88.9 71.4 56% 95 30.03 0.0
03 09:35 S 5 10.00 Fair CLR 86.7 72.3 62% 93 30.03 0.0
03 09:15 S 6 10.00 Fair CLR 84.4 72.1 67% 90 30.03 0.0
03 08:55 S 6 10.00 Fair CLR 82.9 72.3 70% 88 30.04 0.0
03 08:35 S 5 10.00 Fair CLR 81.3 72.3 74% 86 30.04 0.0
03 08:15 S 5 10.00 Fair CLR 79.7 72 77% 83 30.04 0.0
03 07:55 Calm 10.00 Fair CLR 78.1 72.1 82% 81 30.04 0.0
03 07:35 SE 5 10.00 Fair CLR 76.1 72 87% 77 30.04 0.0
03 07:15 SE 5 10.00 Fair CLR 74.8 71.6 90% 30.04 0.0
03 06:55 SE 3 10.00 Fair CLR 73.4 71.2 78.4 72.5 93% 30.04 0.0
03 06:35 SE 3 10.00 Fair CLR 72.7 70.7 94% 30.03 0.0
03 06:15 SE 3 10.00 Fair CLR 72.7 70.7 94% 30.03 0.0
03 05:55 E 3 10.00 Fair CLR 72.9 70.7 93% 30.02 0.0
03 05:35 E 3 10.00 Fair CLR 73.4 70.7 91% 30.02 0.0
03 05:15 Calm 10.00 Fair CLR 73 70.3 91% 30.02 0.0
03 04:55 Calm 10.00 Fair CLR 73.6 70.7 91% 30.02 0.0
03 04:35 Calm 10.00 Fair CLR 74.3 70.3 88% 30.01 0.0
03 04:15 Calm 10.00 Fair CLR 74.8 70.2 85% 30.01 0.0
03 03:55 Calm 10.00 Fair CLR 75.6 70.2 83% 76 30.02 0.0
03 03:35 Calm 10.00 Fair CLR 75.4 70.3 84% 76 30.01 0.0
03 03:15 SE 3 10.00 Fair CLR 75.2 70.2 84% 75 30.01 0.0
03 02:55 SE 3 10.00 Fair CLR 74.8 70.7 87% 30.01 0.0
03 02:35 Calm 10.00 Fair CLR 76.3 70 81% 77 30.01 0.0
03 02:15 Calm 10.00 Fair CLR 75.7 70.2 83% 76 30.01 0.0
03 01:55 SE 3 10.00 Fair CLR 78.3 69.6 75% 81 30.01 0.0
03 01:35 Calm 10.00 Fair CLR 78.3 69.8 75% 81 30.01 0.0
03 01:15 Calm 10.00 Fair CLR 78.1 70 76% 80 30.01 0.0
03 00:55 S 3 10.00 Fair CLR 78.3 70 90.5 76.6 76% 81 30.02 0.0
03 00:35 SE 6 10.00 Fair CLR 77 70.7 81% 79 30.01 0.0
03 00:15 Calm 10.00 Fair CLR 79.5 69.8 72% 82 30.01 0.0
02 23:55 S 3 10.00 Fair CLR 79.9 69.8 71% 83 30.01 0.0
02 23:35 Calm 10.00 Fair CLR 80.1 69.6 71% 83 30.01 0.0
02 23:15 SE 3 10.00 Fair CLR 80.8 69.6 69% 84 30 0.0
02 22:55 Calm 10.00 Fair CLR 81.1 69.6 68% 85 30 0.0
02 22:35 Calm 10.00 Fair CLR 80.1 70.7 73% 83 30.01 0.0
02 22:15 Calm 10.00 Fair CLR 80.2 71.2 74% 84 30 0.0
02 21:55 Calm 10.00 Fair CLR 80.1 72.3 77% 84 30.01 0.0
02 21:35 Calm 10.00 Fair CLR 81.5 71.4 72% 86 30 0.0
02 21:15 Calm 10.00 Fair CLR 83.3 70.3 65% 88 30 0.0
02 20:55 Calm 10.00 Fair CLR 80.4 74.7 83% 86 30 0.0
02 20:35 Calm 10.00 Fair CLR 80.4 75.9 86% 86 29.99 0.0
02 20:15 Calm 10.00 Fair CLR 81 75 82% 87 29.98 0.0
02 19:55 Calm 10.00 Fair CLR 82.4 74.5 77% 89 29.98 0.0
02 19:35 Calm 10.00 Fair CLR 83.1 75.4 78% 91 29.98 0.0
02 19:15 Calm 10.00 Fair CLR 86.9 73.6 65% 95 29.98 0.0
Date Time (cdt) Wind (mph) Vis. (mi.) Weather Sky Cond. Air Dwpt Max. Min. Relative Humidity Wind Chill (°F) Heat Index (°F) altimeter (in) sea level (mb) 1 hr 3 hr 6 hr
6 hour
Temperature (ºF) Pressure Precipitation (in)